sensor_id;sensor_type;location;lat;lon;timestamp;P1;durP1;ratioP1;P2;durP2;ratioP2
43124;SDS011;49182;50.788;7.318;2024-03-22T00:04:30;18.63;;;9.40;;
43124;SDS011;49182;50.788;7.318;2024-03-22T00:09:30;15.55;;;9.27;;
43124;SDS011;49182;50.788;7.318;2024-03-22T00:14:33;13.70;;;9.23;;
43124;SDS011;49182;50.788;7.318;2024-03-22T00:19:34;15.65;;;9.60;;
43124;SDS011;49182;50.788;7.318;2024-03-22T00:24:35;18.20;;;9.20;;
43124;SDS011;49182;50.788;7.318;2024-03-22T00:29:37;19.50;;;9.35;;
43124;SDS011;49182;50.788;7.318;2024-03-22T00:34:38;20.73;;;8.82;;
43124;SDS011;49182;50.788;7.318;2024-03-22T00:39:39;16.73;;;8.95;;
43124;SDS011;49182;50.788;7.318;2024-03-22T00:44:41;15.15;;;8.65;;
43124;SDS011;49182;50.788;7.318;2024-03-22T00:49:42;14.38;;;7.40;;
43124;SDS011;49182;50.788;7.318;2024-03-22T00:54:43;16.83;;;9.55;;
43124;SDS011;49182;50.788;7.318;2024-03-22T00:59:45;17.92;;;9.95;;
43124;SDS011;49182;50.788;7.318;2024-03-22T01:04:45;16.08;;;9.15;;
43124;SDS011;49182;50.788;7.318;2024-03-22T01:09:46;15.85;;;8.30;;
43124;SDS011;49182;50.788;7.318;2024-03-22T01:14:48;18.30;;;8.43;;
43124;SDS011;49182;50.788;7.318;2024-03-22T01:19:49;13.63;;;7.45;;
43124;SDS011;49182;50.788;7.318;2024-03-22T01:24:51;15.77;;;8.82;;
43124;SDS011;49182;50.788;7.318;2024-03-22T01:29:53;17.90;;;10.98;;
43124;SDS011;49182;50.788;7.318;2024-03-22T01:34:54;21.80;;;9.88;;
43124;SDS011;49182;50.788;7.318;2024-03-22T01:39:55;17.33;;;9.40;;
43124;SDS011;49182;50.788;7.318;2024-03-22T01:44:57;13.93;;;9.10;;
43124;SDS011;49182;50.788;7.318;2024-03-22T01:49:58;14.82;;;8.45;;
43124;SDS011;49182;50.788;7.318;2024-03-22T01:54:59;16.80;;;8.27;;
43124;SDS011;49182;50.788;7.318;2024-03-22T02:00:01;15.70;;;8.15;;
43124;SDS011;49182;50.788;7.318;2024-03-22T02:05:11;17.55;;;9.10;;
43124;SDS011;49182;50.788;7.318;2024-03-22T02:10:12;18.00;;;10.68;;
43124;SDS011;49182;50.788;7.318;2024-03-22T02:15:14;18.13;;;9.07;;
43124;SDS011;49182;50.788;7.318;2024-03-22T02:20:15;16.48;;;8.60;;
43124;SDS011;49182;50.788;7.318;2024-03-22T02:25:17;21.67;;;9.48;;
43124;SDS011;49182;50.788;7.318;2024-03-22T02:30:18;19.92;;;8.38;;
43124;SDS011;49182;50.788;7.318;2024-03-22T02:35:19;16.50;;;8.60;;
43124;SDS011;49182;50.788;7.318;2024-03-22T02:40:21;18.65;;;8.63;;
43124;SDS011;49182;50.788;7.318;2024-03-22T02:45:22;14.27;;;9.18;;
43124;SDS011;49182;50.788;7.318;2024-03-22T02:50:22;13.38;;;8.32;;
43124;SDS011;49182;50.788;7.318;2024-03-22T02:55:25;16.10;;;9.30;;
43124;SDS011;49182;50.788;7.318;2024-03-22T03:00:25;18.13;;;8.68;;
43124;SDS011;49182;50.788;7.318;2024-03-22T03:05:26;15.40;;;7.97;;
43124;SDS011;49182;50.788;7.318;2024-03-22T03:10:28;18.10;;;10.20;;
43124;SDS011;49182;50.788;7.318;2024-03-22T03:15:29;12.43;;;8.25;;
43124;SDS011;49182;50.788;7.318;2024-03-22T03:20:30;15.88;;;8.25;;
43124;SDS011;49182;50.788;7.318;2024-03-22T03:25:32;14.98;;;8.18;;
43124;SDS011;49182;50.788;7.318;2024-03-22T03:30:33;17.13;;;8.35;;
43124;SDS011;49182;50.788;7.318;2024-03-22T03:35:33;17.20;;;8.60;;
43124;SDS011;49182;50.788;7.318;2024-03-22T03:40:36;14.27;;;7.47;;
43124;SDS011;49182;50.788;7.318;2024-03-22T03:45:36;17.83;;;8.70;;
43124;SDS011;49182;50.788;7.318;2024-03-22T03:50:37;15.63;;;10.23;;
43124;SDS011;49182;50.788;7.318;2024-03-22T03:55:39;15.13;;;8.82;;
43124;SDS011;49182;50.788;7.318;2024-03-22T04:00:40;20.08;;;8.38;;
43124;SDS011;49182;50.788;7.318;2024-03-22T04:05:40;14.35;;;7.95;;
43124;SDS011;49182;50.788;7.318;2024-03-22T04:10:42;14.85;;;8.07;;
43124;SDS011;49182;50.788;7.318;2024-03-22T04:15:52;15.45;;;7.97;;
43124;SDS011;49182;50.788;7.318;2024-03-22T04:20:53;15.77;;;8.55;;
43124;SDS011;49182;50.788;7.318;2024-03-22T04:25:56;14.65;;;8.43;;
43124;SDS011;49182;50.788;7.318;2024-03-22T04:30:58;13.63;;;8.50;;
43124;SDS011;49182;50.788;7.318;2024-03-22T04:36:00;18.17;;;8.40;;
43124;SDS011;49182;50.788;7.318;2024-03-22T04:41:02;18.88;;;11.25;;
43124;SDS011;49182;50.788;7.318;2024-03-22T04:46:03;21.02;;;9.07;;
43124;SDS011;49182;50.788;7.318;2024-03-22T04:51:04;14.43;;;8.88;;
43124;SDS011;49182;50.788;7.318;2024-03-22T04:56:07;17.02;;;8.88;;
43124;SDS011;49182;50.788;7.318;2024-03-22T05:01:07;14.90;;;8.45;;
43124;SDS011;49182;50.788;7.318;2024-03-22T05:06:08;16.75;;;9.05;;
43124;SDS011;49182;50.788;7.318;2024-03-22T05:11:10;17.88;;;8.70;;
43124;SDS011;49182;50.788;7.318;2024-03-22T05:16:11;14.18;;;7.32;;
43124;SDS011;49182;50.788;7.318;2024-03-22T05:21:12;17.95;;;8.35;;
43124;SDS011;49182;50.788;7.318;2024-03-22T05:26:14;14.10;;;9.02;;
43124;SDS011;49182;50.788;7.318;2024-03-22T05:31:15;17.40;;;8.50;;
43124;SDS011;49182;50.788;7.318;2024-03-22T05:36:16;15.65;;;8.43;;
43124;SDS011;49182;50.788;7.318;2024-03-22T05:41:18;16.58;;;8.65;;
43124;SDS011;49182;50.788;7.318;2024-03-22T05:46:19;15.77;;;8.05;;
43124;SDS011;49182;50.788;7.318;2024-03-22T05:51:20;14.40;;;7.85;;
43124;SDS011;49182;50.788;7.318;2024-03-22T05:56:22;15.45;;;7.95;;
43124;SDS011;49182;50.788;7.318;2024-03-22T06:01:23;14.13;;;7.22;;
43124;SDS011;49182;50.788;7.318;2024-03-22T06:06:25;14.68;;;7.40;;
43124;SDS011;49182;50.788;7.318;2024-03-22T06:11:27;14.73;;;9.25;;
43124;SDS011;49182;50.788;7.318;2024-03-22T06:16:28;16.00;;;7.18;;
43124;SDS011;49182;50.788;7.318;2024-03-22T06:21:29;14.18;;;6.93;;
43124;SDS011;49182;50.788;7.318;2024-03-22T06:26:31;14.80;;;8.48;;
43124;SDS011;49182;50.788;7.318;2024-03-22T06:31:31;11.90;;;8.35;;
43124;SDS011;49182;50.788;7.318;2024-03-22T06:36:32;17.52;;;8.07;;
43124;SDS011;49182;50.788;7.318;2024-03-22T06:41:35;16.50;;;7.85;;
43124;SDS011;49182;50.788;7.318;2024-03-22T06:46:36;11.55;;;7.05;;
43124;SDS011;49182;50.788;7.318;2024-03-22T06:51:36;13.93;;;7.38;;
43124;SDS011;49182;50.788;7.318;2024-03-22T06:56:38;11.82;;;6.97;;
43124;SDS011;49182;50.788;7.318;2024-03-22T07:01:39;12.93;;;7.82;;
43124;SDS011;49182;50.788;7.318;2024-03-22T07:06:40;10.93;;;5.95;;
43124;SDS011;49182;50.788;7.318;2024-03-22T07:11:42;13.57;;;8.20;;
43124;SDS011;49182;50.788;7.318;2024-03-22T07:21:44;13.57;;;8.20;;
43124;SDS011;49182;50.788;7.318;2024-03-22T07:26:46;17.60;;;8.43;;
43124;SDS011;49182;50.788;7.318;2024-03-22T07:31:47;13.02;;;7.22;;
43124;SDS011;49182;50.788;7.318;2024-03-22T07:36:48;15.50;;;7.38;;
43124;SDS011;49182;50.788;7.318;2024-03-22T07:41:50;18.10;;;9.38;;
43124;SDS011;49182;50.788;7.318;2024-03-22T07:46:51;14.18;;;8.25;;
43124;SDS011;49182;50.788;7.318;2024-03-22T07:51:51;14.98;;;8.25;;
43124;SDS011;49182;50.788;7.318;2024-03-22T07:56:53;14.35;;;8.50;;
43124;SDS011;49182;50.788;7.318;2024-03-22T08:01:54;15.32;;;7.60;;
43124;SDS011;49182;50.788;7.318;2024-03-22T08:06:55;13.90;;;7.38;;
43124;SDS011;49182;50.788;7.318;2024-03-22T08:11:57;15.52;;;6.80;;
43124;SDS011;49182;50.788;7.318;2024-03-22T08:16:58;10.43;;;6.47;;
43124;SDS011;49182;50.788;7.318;2024-03-22T08:21:59;13.68;;;6.13;;
43124;SDS011;49182;50.788;7.318;2024-03-22T08:27:01;11.93;;;6.47;;
43124;SDS011;49182;50.788;7.318;2024-03-22T08:32:01;11.48;;;7.32;;
43124;SDS011;49182;50.788;7.318;2024-03-22T08:37:02;11.20;;;6.30;;
43124;SDS011;49182;50.788;7.318;2024-03-22T08:42:05;11.55;;;7.63;;
43124;SDS011;49182;50.788;7.318;2024-03-22T08:47:06;10.40;;;5.90;;
43124;SDS011;49182;50.788;7.318;2024-03-22T08:52:06;11.55;;;5.82;;
43124;SDS011;49182;50.788;7.318;2024-03-22T08:57:08;9.57;;;5.47;;
43124;SDS011;49182;50.788;7.318;2024-03-22T09:02:09;10.43;;;5.57;;
43124;SDS011;49182;50.788;7.318;2024-03-22T09:07:10;13.88;;;7.63;;
43124;SDS011;49182;50.788;7.318;2024-03-22T09:12:12;13.52;;;7.50;;
43124;SDS011;49182;50.788;7.318;2024-03-22T09:17:13;13.00;;;6.90;;
43124;SDS011;49182;50.788;7.318;2024-03-22T09:22:14;13.98;;;8.20;;
43124;SDS011;49182;50.788;7.318;2024-03-22T09:27:16;14.73;;;8.30;;
43124;SDS011;49182;50.788;7.318;2024-03-22T09:32:17;15.45;;;9.10;;
43124;SDS011;49182;50.788;7.318;2024-03-22T09:37:17;13.85;;;8.82;;
43124;SDS011;49182;50.788;7.318;2024-03-22T09:42:19;15.75;;;8.52;;
43124;SDS011;49182;50.788;7.318;2024-03-22T09:47:23;12.90;;;8.05;;
43124;SDS011;49182;50.788;7.318;2024-03-22T09:52:25;19.13;;;8.15;;
43124;SDS011;49182;50.788;7.318;2024-03-22T09:57:27;15.50;;;8.98;;
43124;SDS011;49182;50.788;7.318;2024-03-22T10:02:28;16.30;;;9.75;;
43124;SDS011;49182;50.788;7.318;2024-03-22T10:07:29;16.50;;;8.95;;
43124;SDS011;49182;50.788;7.318;2024-03-22T10:12:32;13.13;;;8.65;;
43124;SDS011;49182;50.788;7.318;2024-03-22T10:17:33;15.98;;;9.13;;
43124;SDS011;49182;50.788;7.318;2024-03-22T10:22:35;16.23;;;8.68;;
43124;SDS011;49182;50.788;7.318;2024-03-22T10:27:39;13.00;;;7.78;;
43124;SDS011;49182;50.788;7.318;2024-03-22T10:32:40;14.65;;;7.95;;
43124;SDS011;49182;50.788;7.318;2024-03-22T10:37:42;10.60;;;6.75;;
43124;SDS011;49182;50.788;7.318;2024-03-22T10:42:44;13.65;;;6.75;;
43124;SDS011;49182;50.788;7.318;2024-03-22T10:47:46;11.52;;;6.88;;
43124;SDS011;49182;50.788;7.318;2024-03-22T10:52:48;12.32;;;6.82;;
43124;SDS011;49182;50.788;7.318;2024-03-22T10:57:55;12.45;;;6.35;;
43124;SDS011;49182;50.788;7.318;2024-03-22T11:02:57;10.05;;;6.50;;
43124;SDS011;49182;50.788;7.318;2024-03-22T11:07:58;13.48;;;6.05;;
43124;SDS011;49182;50.788;7.318;2024-03-22T11:13:01;9.68;;;6.00;;
43124;SDS011;49182;50.788;7.318;2024-03-22T11:18:03;10.75;;;5.68;;
43124;SDS011;49182;50.788;7.318;2024-03-22T11:23:04;9.63;;;5.07;;
43124;SDS011;49182;50.788;7.318;2024-03-22T11:28:08;8.10;;;4.95;;
43124;SDS011;49182;50.788;7.318;2024-03-22T11:33:09;5.38;;;3.72;;
43124;SDS011;49182;50.788;7.318;2024-03-22T11:38:10;8.30;;;4.68;;
43124;SDS011;49182;50.788;7.318;2024-03-22T11:43:12;7.20;;;4.10;;
43124;SDS011;49182;50.788;7.318;2024-03-22T11:48:15;5.55;;;3.65;;
43124;SDS011;49182;50.788;7.318;2024-03-22T11:53:16;6.13;;;3.97;;
43124;SDS011;49182;50.788;7.318;2024-03-22T11:58:19;7.55;;;4.70;;
43124;SDS011;49182;50.788;7.318;2024-03-22T12:03:20;6.13;;;4.05;;
43124;SDS011;49182;50.788;7.318;2024-03-22T12:08:20;7.05;;;3.35;;
43124;SDS011;49182;50.788;7.318;2024-03-22T12:13:22;5.07;;;2.92;;
43124;SDS011;49182;50.788;7.318;2024-03-22T12:18:23;5.10;;;3.20;;
43124;SDS011;49182;50.788;7.318;2024-03-22T12:23:24;3.78;;;1.90;;
43124;SDS011;49182;50.788;7.318;2024-03-22T12:28:27;4.50;;;3.05;;
43124;SDS011;49182;50.788;7.318;2024-03-22T12:33:27;3.97;;;2.30;;
43124;SDS011;49182;50.788;7.318;2024-03-22T12:38:28;5.13;;;3.17;;
43124;SDS011;49182;50.788;7.318;2024-03-22T12:43:30;5.28;;;2.83;;
43124;SDS011;49182;50.788;7.318;2024-03-22T12:48:31;5.10;;;1.98;;
43124;SDS011;49182;50.788;7.318;2024-03-22T12:53:32;5.72;;;2.55;;
43124;SDS011;49182;50.788;7.318;2024-03-22T12:58:34;4.47;;;2.38;;
43124;SDS011;49182;50.788;7.318;2024-03-22T13:03:35;5.07;;;2.58;;
43124;SDS011;49182;50.788;7.318;2024-03-22T13:08:36;4.55;;;2.50;;
43124;SDS011;49182;50.788;7.318;2024-03-22T13:13:38;4.18;;;2.10;;
43124;SDS011;49182;50.788;7.318;2024-03-22T13:18:39;5.30;;;2.22;;
43124;SDS011;49182;50.788;7.318;2024-03-22T13:23:40;4.32;;;2.20;;
43124;SDS011;49182;50.788;7.318;2024-03-22T13:28:42;4.28;;;2.20;;
43124;SDS011;49182;50.788;7.318;2024-03-22T13:33:43;5.20;;;2.60;;
43124;SDS011;49182;50.788;7.318;2024-03-22T13:38:45;5.93;;;2.85;;
43124;SDS011;49182;50.788;7.318;2024-03-22T13:43:47;4.55;;;2.22;;
43124;SDS011;49182;50.788;7.318;2024-03-22T13:53:48;5.05;;;2.55;;
43124;SDS011;49182;50.788;7.318;2024-03-22T13:58:50;6.93;;;3.25;;
43124;SDS011;49182;50.788;7.318;2024-03-22T14:03:51;4.00;;;2.60;;
43124;SDS011;49182;50.788;7.318;2024-03-22T14:08:52;9.85;;;2.78;;
43124;SDS011;49182;50.788;7.318;2024-03-22T14:13:54;6.45;;;2.88;;
43124;SDS011;49182;50.788;7.318;2024-03-22T14:18:55;4.35;;;2.45;;
43124;SDS011;49182;50.788;7.318;2024-03-22T14:23:55;4.97;;;2.80;;
43124;SDS011;49182;50.788;7.318;2024-03-22T14:28:57;5.22;;;2.65;;
43124;SDS011;49182;50.788;7.318;2024-03-22T14:33:58;4.45;;;2.42;;
43124;SDS011;49182;50.788;7.318;2024-03-22T14:38:59;4.25;;;2.25;;
43124;SDS011;49182;50.788;7.318;2024-03-22T14:44:01;21.25;;;6.13;;
43124;SDS011;49182;50.788;7.318;2024-03-22T14:49:02;5.13;;;1.85;;
43124;SDS011;49182;50.788;7.318;2024-03-22T14:54:03;4.07;;;2.30;;
43124;SDS011;49182;50.788;7.318;2024-03-22T14:59:05;6.95;;;2.70;;
43124;SDS011;49182;50.788;7.318;2024-03-22T15:04:06;4.82;;;2.47;;
43124;SDS011;49182;50.788;7.318;2024-03-22T15:09:06;8.38;;;3.55;;
43124;SDS011;49182;50.788;7.318;2024-03-22T15:14:08;9.18;;;4.25;;
43124;SDS011;49182;50.788;7.318;2024-03-22T15:19:09;5.72;;;4.07;;
43124;SDS011;49182;50.788;7.318;2024-03-22T15:24:10;7.65;;;3.50;;
43124;SDS011;49182;50.788;7.318;2024-03-22T15:29:12;5.22;;;3.30;;
43124;SDS011;49182;50.788;7.318;2024-03-22T15:34:13;6.78;;;3.75;;
43124;SDS011;49182;50.788;7.318;2024-03-22T15:39:15;6.72;;;4.25;;
43124;SDS011;49182;50.788;7.318;2024-03-22T15:44:17;9.10;;;4.55;;
43124;SDS011;49182;50.788;7.318;2024-03-22T15:49:19;7.30;;;3.85;;
43124;SDS011;49182;50.788;7.318;2024-03-22T15:54:20;7.97;;;4.03;;
43124;SDS011;49182;50.788;7.318;2024-03-22T15:59:22;7.35;;;3.88;;
43124;SDS011;49182;50.788;7.318;2024-03-22T16:04:23;6.68;;;4.75;;
43124;SDS011;49182;50.788;7.318;2024-03-22T16:09:23;7.70;;;4.90;;
43124;SDS011;49182;50.788;7.318;2024-03-22T16:14:26;7.80;;;5.90;;
43124;SDS011;49182;50.788;7.318;2024-03-22T16:19:26;9.95;;;4.78;;
43124;SDS011;49182;50.788;7.318;2024-03-22T16:24:27;10.90;;;5.75;;
43124;SDS011;49182;50.788;7.318;2024-03-22T16:29:29;11.35;;;5.80;;
43124;SDS011;49182;50.788;7.318;2024-03-22T16:34:30;12.70;;;7.43;;
43124;SDS011;49182;50.788;7.318;2024-03-22T16:39:31;12.20;;;7.22;;
43124;SDS011;49182;50.788;7.318;2024-03-22T16:44:33;11.60;;;6.88;;
43124;SDS011;49182;50.788;7.318;2024-03-22T16:49:34;12.43;;;6.15;;
43124;SDS011;49182;50.788;7.318;2024-03-22T16:54:35;15.70;;;7.05;;
43124;SDS011;49182;50.788;7.318;2024-03-22T16:59:37;10.85;;;5.57;;
43124;SDS011;49182;50.788;7.318;2024-03-22T17:04:38;13.85;;;7.25;;
43124;SDS011;49182;50.788;7.318;2024-03-22T17:09:38;12.75;;;8.23;;
43124;SDS011;49182;50.788;7.318;2024-03-22T17:14:40;12.98;;;7.53;;
43124;SDS011;49182;50.788;7.318;2024-03-22T17:19:41;12.95;;;7.28;;
43124;SDS011;49182;50.788;7.318;2024-03-22T17:24:42;14.38;;;8.43;;
43124;SDS011;49182;50.788;7.318;2024-03-22T17:29:44;12.35;;;7.85;;
43124;SDS011;49182;50.788;7.318;2024-03-22T17:39:45;16.33;;;8.25;;
43124;SDS011;49182;50.788;7.318;2024-03-22T17:44:47;21.15;;;8.48;;
43124;SDS011;49182;50.788;7.318;2024-03-22T17:49:49;14.70;;;9.45;;
43124;SDS011;49182;50.788;7.318;2024-03-22T17:54:50;16.77;;;8.82;;
43124;SDS011;49182;50.788;7.318;2024-03-22T17:59:54;14.90;;;8.30;;
43124;SDS011;49182;50.788;7.318;2024-03-22T18:04:55;16.60;;;8.77;;
43124;SDS011;49182;50.788;7.318;2024-03-22T18:09:55;18.75;;;9.65;;
43124;SDS011;49182;50.788;7.318;2024-03-22T18:14:58;17.40;;;10.05;;
43124;SDS011;49182;50.788;7.318;2024-03-22T18:19:59;23.10;;;12.32;;
43124;SDS011;49182;50.788;7.318;2024-03-22T18:24:59;17.70;;;11.15;;
43124;SDS011;49182;50.788;7.318;2024-03-22T18:30:01;23.45;;;12.82;;
43124;SDS011;49182;50.788;7.318;2024-03-22T18:35:03;23.45;;;13.20;;
43124;SDS011;49182;50.788;7.318;2024-03-22T18:40:05;22.15;;;11.52;;
43124;SDS011;49182;50.788;7.318;2024-03-22T18:45:08;24.10;;;13.77;;
43124;SDS011;49182;50.788;7.318;2024-03-22T18:50:09;23.17;;;13.63;;
43124;SDS011;49182;50.788;7.318;2024-03-22T18:55:10;24.27;;;13.27;;
43124;SDS011;49182;50.788;7.318;2024-03-22T19:00:13;25.17;;;15.27;;
43124;SDS011;49182;50.788;7.318;2024-03-22T19:05:14;20.52;;;12.57;;
43124;SDS011;49182;50.788;7.318;2024-03-22T19:10:15;24.27;;;11.60;;
43124;SDS011;49182;50.788;7.318;2024-03-22T19:15:17;23.58;;;13.68;;
43124;SDS011;49182;50.788;7.318;2024-03-22T19:20:19;23.40;;;12.82;;
43124;SDS011;49182;50.788;7.318;2024-03-22T19:25:20;26.90;;;14.15;;
43124;SDS011;49182;50.788;7.318;2024-03-22T19:30:24;25.08;;;16.45;;
43124;SDS011;49182;50.788;7.318;2024-03-22T19:35:25;23.17;;;13.70;;
43124;SDS011;49182;50.788;7.318;2024-03-22T19:40:25;23.27;;;13.05;;
43124;SDS011;49182;50.788;7.318;2024-03-22T19:45:28;22.30;;;13.38;;
43124;SDS011;49182;50.788;7.318;2024-03-22T19:50:29;19.52;;;12.93;;
43124;SDS011;49182;50.788;7.318;2024-03-22T19:55:29;15.75;;;9.98;;
43124;SDS011;49182;50.788;7.318;2024-03-22T20:00:31;17.92;;;11.82;;
43124;SDS011;49182;50.788;7.318;2024-03-22T20:05:32;18.92;;;11.07;;
43124;SDS011;49182;50.788;7.318;2024-03-22T20:10:33;17.83;;;9.88;;
43124;SDS011;49182;50.788;7.318;2024-03-22T20:15:35;14.73;;;8.73;;
43124;SDS011;49182;50.788;7.318;2024-03-22T20:20:36;14.63;;;10.00;;
43124;SDS011;49182;50.788;7.318;2024-03-22T20:25:38;16.42;;;9.75;;
43124;SDS011;49182;50.788;7.318;2024-03-22T20:30:40;14.15;;;9.65;;
43124;SDS011;49182;50.788;7.318;2024-03-22T20:35:41;16.00;;;8.45;;
